EST,Max TemperatureF,Mean TemperatureF,Min TemperatureF,Max Dew PointF,MeanDew PointF,Min DewpointF,Max Humidity, Mean Humidity, Min Humidity, Max Sea Level PressureIn, Mean Sea Level PressureIn, Min Sea Level PressureIn, Max VisibilityMiles, Mean VisibilityMiles, Min VisibilityMiles, Max Wind SpeedMPH, Mean Wind SpeedMPH, Max Gust SpeedMPH,PrecipitationIn, CloudCover, Events, WindDirDegrees
2012-12-1,46,38,30,38,32,28,97,86,71,30.48,30.41,30.37,8,4,0,7,2,,0.00,7,Fog,52
2012-12-2,55,46,37,45,40,36,100,89,62,30.41,30.28,30.14,9,3,0,9,1,,0.01,6,Fog-Rain,227
2012-12-3,66,52,37,52,45,37,100,84,59,30.26,30.20,30.14,10,5,0,6,1,,0.00,4,Fog,230
2012-12-4,70,56,42,51,47,41,100,78,47,30.23,30.14,29.96,10,6,1,13,2,20,0.00,4,,188
2012-12-5,64,48,32,48,32,19,75,55,43,30.32,30.15,29.95,10,10,10,17,10,24,0.00,3,,302
2012-12-6,41,32,23,23,20,17,81,62,43,30.39,30.32,30.25,10,10,10,6,2,,0.00,0,,253
2012-12-7,42,38,33,40,36,23,100,87,64,30.24,30.09,29.99,10,6,1,6,1,,0.04,8,Rain,132
2012-12-8,48,44,41,46,43,39,100,93,86,30.04,29.95,29.88,4,2,0,5,1,,0.00,8,Fog-Rain,332
2012-12-9,46,42,39,45,42,38,100,93,81,30.22,30.13,29.99,10,3,0,13,2,,0.01,8,Fog-Rain,60
2012-12-10,55,48,41,54,48,39,100,94,83,29.95,29.70,29.57,10,4,0,15,4,23,0.03,8,Fog-Rain,283
2012-12-11,46,38,30,41,32,26,88,74,53,30.23,29.98,29.70,10,10,10,15,5,22,0.02,5,Rain,309
2012-12-12,39,33,27,28,26,24,92,77,53,30.46,30.38,30.23,10,9,7,9,1,,0.00,0,,322
2012-12-13,44,32,21,27,22,18,92,75,35,30.49,30.43,30.36,10,8,5,5,0,,0.00,0,,-1
2012-12-14,50,34,19,29,22,16,92,72,35,30.34,30.28,30.22,10,8,5,9,1,,0.00,0,,244
2012-12-15,50,38,25,34,28,22,89,70,43,30.33,30.24,30.15,10,9,5,7,2,,0.00,1,,120
2012-12-16,48,44,41,43,40,35,90,80,71,30.14,29.97,29.86,10,7,3,7,3,,0.00,8,Rain,126
2012-12-17,48,46,44,45,44,43,100,94,89,29.86,29.75,29.55,7,3,0,8,2,,0.24,8,Fog-Rain,100
2012-12-18,53,44,35,45,38,28,100,81,54,29.79,29.59,29.51,10,6,0,22,3,31,0.01,5,Fog-Rain,269
2012-12-19,46,37,28,34,30,26,92,71,56,30.18,29.97,29.80,10,10,9,18,5,26,0.00,5,,295
2012-12-20,45,34,25,42,31,23,92,81,49,30.21,30.00,29.47,10,8,4,15,4,28,0.51,3,Rain,127
2012-12-21,57,46,35,50,35,22,94,75,57,29.95,29.35,29.25,10,8,1,21,14,31,0.73,8,Rain,269
2012-12-22,37,34,30,22,20,19,64,54,47,29.98,29.78,29.49,10,10,10,25,16,45,0.00,6,,288
2012-12-23,45,34,24,22,18,14,85,59,30,30.05,29.98,29.89,10,10,10,10,4,,0.00,0,,235
2012-12-24,37,28,19,30,26,18,100,88,57,30.09,29.97,29.90,10,4,0,8,2,,0.26,5,Fog-Snow,105
2012-12-25,41,34,28,34,30,23,100,88,70,30.29,30.10,29.91,10,4,0,9,2,,0.00,8,Fog,333
2012-12-26,37,32,28,34,26,21,93,85,72,30.28,29.91,29.44,10,5,0,22,9,31,0.68,8,Fog-Rain-Snow,65
2012-12-27,35,34,32,34,27,22,93,79,61,30.00,29.65,29.41,10,9,4,22,12,33,0.15,8,Rain-Snow,304
2012-12-28,36,30,23,25,23,20,88,73,61,30.13,30.08,29.99,10,10,8,8,4,,0.00,3,,307
2012-12-29,33,30,27,30,27,24,100,89,70,30.04,29.73,29.57,10,3,0,16,5,18,0.19,8,Fog-Snow,60
2012-12-30,34,30,25,24,19,16,76,61,52,30.30,30.11,29.81,10,10,5,25,11,41,0.00,6,Rain-Snow,293
2012-12-31,39,30,21,27,19,15,78,63,46,30.29,30.16,29.96,10,10,10,13,5,18,0.00,2,,225